createdAt,value
2023-04-29T00:02:05.203Z,11.90
2023-04-29T00:04:33.733Z,12.00
2023-04-29T00:07:02.248Z,11.90
2023-04-29T00:09:30.794Z,11.90
2023-04-29T00:11:58.930Z,11.90
2023-04-29T00:14:27.228Z,11.90
2023-04-29T00:16:55.456Z,12.00
2023-04-29T00:19:25.186Z,11.90
2023-04-29T00:21:54.619Z,11.80
2023-04-29T00:24:22.773Z,11.90
2023-04-29T00:26:50.891Z,11.80
2023-04-29T00:29:19.452Z,11.90
2023-04-29T00:31:47.659Z,11.80
2023-04-29T00:34:15.823Z,11.80
2023-04-29T00:36:45.328Z,11.80
2023-04-29T00:39:15.255Z,11.70
2023-04-29T00:41:43.913Z,11.80
2023-04-29T00:44:12.571Z,11.70
2023-04-29T00:46:41.292Z,11.70
2023-04-29T00:49:10.860Z,11.60
2023-04-29T00:51:40.912Z,11.60
2023-04-29T00:54:11.929Z,11.60
2023-04-29T00:56:42.560Z,11.70
2023-04-29T00:59:12.526Z,11.60
2023-04-29T01:01:41.057Z,11.60
2023-04-29T01:04:09.383Z,11.50
2023-04-29T01:06:50.518Z,11.50
2023-04-29T01:09:39.769Z,11.50
2023-04-29T01:12:16.972Z,11.60
2023-04-29T01:14:54.764Z,11.60
2023-04-29T01:17:28.146Z,11.60
2023-04-29T01:19:57.735Z,11.50
2023-04-29T01:22:26.341Z,11.60
2023-04-29T01:24:56.049Z,11.50
2023-04-29T01:27:31.682Z,11.50
2023-04-29T01:30:12.697Z,11.50
2023-04-29T01:32:52.425Z,11.50
2023-04-29T01:35:41.784Z,11.50
2023-04-29T01:38:24.415Z,11.50
2023-04-29T01:41:07.101Z,11.50
2023-04-29T01:43:38.522Z,11.50
2023-04-29T01:46:19.383Z,11.50
2023-04-29T01:48:48.132Z,11.50
2023-04-29T01:51:16.600Z,11.50
2023-04-29T01:53:44.896Z,11.50
2023-04-29T01:56:14.441Z,11.50
2023-04-29T01:59:00.927Z,11.40
2023-04-29T02:01:58.630Z,11.20
2023-04-29T02:04:27.797Z,11.20
2023-04-29T02:06:56.140Z,11.20
2023-04-29T02:09:24.746Z,11.20
2023-04-29T02:11:59.520Z,11.10
2023-04-29T02:14:27.837Z,11.00
2023-04-29T02:16:56.205Z,11.00
2023-04-29T02:19:25.900Z,11.00
2023-04-29T02:21:56.653Z,11.00
2023-04-29T02:24:27.155Z,11.10
2023-04-29T02:26:56.088Z,11.00
2023-04-29T02:29:26.621Z,11.00
2023-04-29T02:31:56.065Z,10.90
2023-04-29T02:34:24.583Z,10.90
2023-04-29T02:36:52.695Z,10.90
2023-04-29T02:39:23.165Z,10.90
2023-04-29T02:41:51.436Z,10.90
2023-04-29T02:44:19.529Z,10.90
2023-04-29T02:46:49.248Z,10.90
2023-04-29T02:49:17.664Z,10.90
2023-04-29T02:51:45.983Z,10.90
2023-04-29T02:54:14.334Z,10.80
2023-04-29T02:56:42.783Z,10.80
2023-04-29T02:59:11.255Z,10.90
2023-04-29T03:01:39.913Z,10.80
2023-04-29T03:04:10.048Z,10.80
2023-04-29T03:06:38.407Z,10.90
2023-04-29T03:09:06.737Z,10.80
2023-04-29T03:11:34.896Z,10.80
2023-04-29T03:14:03.176Z,10.90
2023-04-29T03:16:31.660Z,10.80
2023-04-29T03:18:59.798Z,10.70
2023-04-29T03:21:29.843Z,10.70
2023-04-29T03:23:58.441Z,10.70
2023-04-29T03:26:32.674Z,10.70
2023-04-29T03:29:00.898Z,10.70
2023-04-29T03:31:29.229Z,10.70
2023-04-29T03:33:57.500Z,10.70
2023-04-29T03:36:25.906Z,10.70
2023-04-29T03:39:05.166Z,10.70
2023-04-29T03:41:33.367Z,10.70
2023-04-29T03:44:01.680Z,10.70
2023-04-29T03:46:31.148Z,10.70
2023-04-29T03:48:59.329Z,10.60
2023-04-29T03:51:28.157Z,10.70
2023-04-29T03:54:07.134Z,10.70
2023-04-29T03:56:37.940Z,10.60
2023-04-29T03:59:06.542Z,10.70
2023-04-29T04:01:35.043Z,10.70
2023-04-29T04:04:03.634Z,10.70
2023-04-29T04:06:33.100Z,10.70
2023-04-29T04:09:01.479Z,10.70
2023-04-29T04:11:33.673Z,10.60
2023-04-29T04:14:05.775Z,10.50
2023-04-29T04:16:34.069Z,10.50
2023-04-29T04:19:03.165Z,10.50
2023-04-29T04:21:33.844Z,10.60
2023-04-29T04:24:07.924Z,10.60
2023-04-29T04:26:37.903Z,10.50
2023-04-29T04:29:33.272Z,10.60
2023-04-29T04:32:06.998Z,10.60
2023-04-29T04:34:40.405Z,10.60
2023-04-29T04:37:08.725Z,10.60
2023-04-29T04:39:37.807Z,10.60
2023-04-29T04:42:07.824Z,10.60
2023-04-29T04:44:37.574Z,10.60
2023-04-29T04:47:08.150Z,10.70
2023-04-29T04:50:02.553Z,10.70
2023-04-29T04:52:33.102Z,10.70
2023-04-29T04:55:13.819Z,10.70
2023-04-29T04:57:47.141Z,10.70
2023-04-29T05:00:15.873Z,10.70
2023-04-29T05:02:44.883Z,10.80
2023-04-29T05:05:13.094Z,10.80
2023-04-29T05:07:43.863Z,10.70
2023-04-29T05:10:12.730Z,10.70
2023-04-29T05:12:50.684Z,10.70
2023-04-29T05:15:20.728Z,10.60
2023-04-29T05:17:51.909Z,10.60
2023-04-29T05:20:21.283Z,10.60
2023-04-29T05:22:49.713Z,10.60
2023-04-29T05:25:18.444Z,10.60
2023-04-29T05:27:46.735Z,10.60
2023-04-29T05:30:19.719Z,10.60
2023-04-29T05:32:48.740Z,10.60
2023-04-29T05:35:19.423Z,10.60
2023-04-29T05:37:47.661Z,10.70
2023-04-29T05:40:42.006Z,10.80
2023-04-29T05:43:21.891Z,10.70
2023-04-29T05:45:52.045Z,10.80
2023-04-29T05:48:20.192Z,10.80
2023-04-29T05:50:48.917Z,10.80
2023-04-29T05:53:17.123Z,10.80
2023-04-29T05:55:46.494Z,10.70
2023-04-29T05:58:15.090Z,10.70
2023-04-29T06:00:43.892Z,10.60
2023-04-29T06:03:19.919Z,10.60
2023-04-29T06:05:51.085Z,10.70
2023-04-29T06:08:51.454Z,10.70
2023-04-29T06:11:24.318Z,10.70
2023-04-29T06:13:52.700Z,10.60
2023-04-29T06:16:21.418Z,10.60
2023-04-29T06:18:52.159Z,10.60
2023-04-29T06:21:20.328Z,10.60
2023-04-29T06:23:48.418Z,10.60
2023-04-29T06:26:19.093Z,10.60
2023-04-29T06:28:47.514Z,10.50
2023-04-29T06:31:16.951Z,10.50
2023-04-29T06:33:46.580Z,10.60
2023-04-29T06:36:16.422Z,10.60
2023-04-29T06:39:16.745Z,10.60
2023-04-29T06:41:54.646Z,10.60
2023-04-29T06:44:41.269Z,10.40
2023-04-29T06:47:40.722Z,10.40
2023-04-29T06:50:13.342Z,10.50
2023-04-29T06:52:43.064Z,10.50
2023-04-29T06:55:12.553Z,10.50
2023-04-29T06:57:43.476Z,10.40
2023-04-29T07:00:12.112Z,10.50
2023-04-29T07:02:40.357Z,10.50
2023-04-29T07:05:09.560Z,10.40
2023-04-29T07:07:37.783Z,10.20
2023-04-29T07:10:08.112Z,10.20
2023-04-29T07:12:37.372Z,10.30
2023-04-29T07:15:06.128Z,10.30
2023-04-29T07:17:34.760Z,10.30
2023-04-29T07:20:04.125Z,10.30
2023-04-29T07:22:32.327Z,10.30
2023-04-29T07:25:00.657Z,10.10
2023-04-29T07:27:30.300Z,10.30
2023-04-29T07:30:02.995Z,10.30
2023-04-29T07:32:32.520Z,10.30
2023-04-29T07:35:04.605Z,10.40
2023-04-29T07:37:32.813Z,10.30
2023-04-29T07:40:01.096Z,10.30
2023-04-29T07:42:30.787Z,10.40
2023-04-29T07:45:00.393Z,10.40
2023-04-29T07:47:29.426Z,10.30
2023-04-29T07:49:58.322Z,10.40
2023-04-29T07:52:26.780Z,10.30
2023-04-29T07:54:56.240Z,10.30
2023-04-29T07:57:24.732Z,10.30
2023-04-29T07:59:54.945Z,10.50
2023-04-29T08:02:23.337Z,10.60
2023-04-29T08:04:54.634Z,10.50
2023-04-29T08:07:24.877Z,10.50
2023-04-29T08:09:53.183Z,10.40
2023-04-29T08:12:21.431Z,10.40
2023-04-29T08:14:49.564Z,10.40
2023-04-29T08:17:19.106Z,10.40
2023-04-29T08:19:48.619Z,10.50
2023-04-29T08:22:17.142Z,10.60
2023-04-29T08:24:45.402Z,10.60
2023-04-29T08:27:13.554Z,10.50
2023-04-29T08:29:41.810Z,10.60
2023-04-29T08:32:10.087Z,10.60
2023-04-29T08:34:41.502Z,10.60
2023-04-29T08:37:09.637Z,10.60
2023-04-29T08:39:37.845Z,10.70
2023-04-29T08:42:10.255Z,10.90
2023-04-29T08:44:39.537Z,10.90
2023-04-29T08:47:08.147Z,10.90
2023-04-29T08:49:38.150Z,11.00
2023-04-29T08:52:07.960Z,11.00
2023-04-29T08:54:36.306Z,11.00
2023-04-29T08:57:06.212Z,10.90
2023-04-29T08:59:34.787Z,11.00
2023-04-29T09:02:03.433Z,11.00
2023-04-29T09:04:54.249Z,11.10
2023-04-29T09:07:24.779Z,11.30
2023-04-29T09:09:54.001Z,11.50
2023-04-29T09:12:22.165Z,11.70
2023-04-29T09:14:50.499Z,11.80
2023-04-29T09:17:18.805Z,11.80
2023-04-29T09:19:46.985Z,11.70
2023-04-29T09:22:15.344Z,11.70
2023-04-29T09:24:45.689Z,11.80
2023-04-29T09:27:28.989Z,11.90
2023-04-29T09:30:02.385Z,11.90
2023-04-29T09:32:30.886Z,12.30
2023-04-29T09:34:59.205Z,12.50
2023-04-29T09:37:28.571Z,12.60
2023-04-29T09:39:58.204Z,12.50
2023-04-29T09:42:26.390Z,12.60
2023-04-29T09:44:54.911Z,12.60
2023-04-29T09:47:31.663Z,12.80
2023-04-29T09:50:13.965Z,12.70
2023-04-29T09:52:43.338Z,12.70
2023-04-29T09:55:15.879Z,12.70
2023-04-29T09:57:45.696Z,12.80
2023-04-29T10:00:14.734Z,12.80
2023-04-29T10:02:44.077Z,12.90
2023-04-29T10:05:13.359Z,12.90
2023-04-29T10:07:42.117Z,12.80
2023-04-29T10:10:13.819Z,12.90
2023-04-29T10:12:42.409Z,13.00
2023-04-29T10:15:21.647Z,13.00
2023-04-29T10:17:56.264Z,12.80
2023-04-29T10:20:26.377Z,12.80
2023-04-29T10:22:56.960Z,12.90
2023-04-29T10:25:28.198Z,12.90
2023-04-29T10:27:57.272Z,13.10
2023-04-29T10:30:25.554Z,13.30
2023-04-29T10:32:53.986Z,13.30
2023-04-29T10:35:25.631Z,13.30
2023-04-29T10:37:56.016Z,13.50
2023-04-29T10:40:31.613Z,13.30
2023-04-29T10:43:00.536Z,13.30
2023-04-29T10:45:31.688Z,13.50
2023-04-29T10:48:16.352Z,13.50
2023-04-29T10:51:03.566Z,13.90
2023-04-29T10:53:32.132Z,14.00
2023-04-29T10:56:10.786Z,14.00
2023-04-29T10:58:42.058Z,14.00
2023-04-29T11:01:13.283Z,13.80
2023-04-29T11:03:55.661Z,13.80
2023-04-29T11:06:25.580Z,13.90
2023-04-29T11:09:04.094Z,14.20
2023-04-29T11:11:48.845Z,14.30
2023-04-29T11:14:24.692Z,14.20
2023-04-29T11:16:54.753Z,14.10
2023-04-29T11:19:26.706Z,14.10
2023-04-29T11:22:25.415Z,14.20
2023-04-29T11:24:56.314Z,14.40
2023-04-29T11:27:27.563Z,14.20
2023-04-29T11:30:03.014Z,14.20
2023-04-29T11:32:33.110Z,14.10
2023-04-29T11:35:12.122Z,14.20
2023-04-29T11:37:41.098Z,13.90
2023-04-29T11:40:11.478Z,13.80
2023-04-29T11:42:45.343Z,13.80
2023-04-29T11:45:15.124Z,14.00
2023-04-29T11:47:46.106Z,14.00
2023-04-29T11:50:16.929Z,14.00
2023-04-29T11:52:46.975Z,13.90
2023-04-29T11:55:15.245Z,13.90
2023-04-29T11:57:44.826Z,13.80
2023-04-29T12:00:14.643Z,13.70
2023-04-29T12:02:46.483Z,13.60
2023-04-29T12:05:17.224Z,13.70
2023-04-29T12:07:45.897Z,13.60
2023-04-29T12:10:14.328Z,13.80
2023-04-29T12:12:45.591Z,13.90
2023-04-29T12:15:14.682Z,13.80
2023-04-29T12:17:44.266Z,14.20
2023-04-29T12:20:13.074Z,14.40
2023-04-29T12:22:43.820Z,14.30
2023-04-29T12:25:12.473Z,14.30
2023-04-29T12:27:42.718Z,14.40
2023-04-29T12:30:13.048Z,14.40
2023-04-29T12:32:41.486Z,14.60
2023-04-29T12:35:17.524Z,14.50
2023-04-29T12:37:49.566Z,14.40
2023-04-29T12:40:20.177Z,14.30
2023-04-29T12:42:48.354Z,14.30
2023-04-29T12:45:32.331Z,14.30
2023-04-29T12:48:01.754Z,14.30
2023-04-29T12:50:32.903Z,14.30
2023-04-29T12:53:01.768Z,14.40
2023-04-29T12:55:30.110Z,14.40
2023-04-29T12:58:00.863Z,14.50
2023-04-29T13:00:31.043Z,14.50
2023-04-29T13:02:59.575Z,14.70
2023-04-29T13:05:27.867Z,14.90
2023-04-29T13:07:56.835Z,15.00
2023-04-29T13:10:25.142Z,15.00
2023-04-29T13:12:53.304Z,15.30
2023-04-29T13:15:22.138Z,15.50
2023-04-29T13:17:51.878Z,15.60
2023-04-29T13:20:20.587Z,15.30
2023-04-29T13:22:49.155Z,15.30
2023-04-29T13:25:17.532Z,15.50
2023-04-29T13:27:45.626Z,15.20
2023-04-29T13:30:14.292Z,15.10
2023-04-29T13:32:46.258Z,15.00
2023-04-29T13:35:21.010Z,15.00
2023-04-29T13:37:49.506Z,14.70
2023-04-29T13:40:21.000Z,14.60
2023-04-29T13:42:50.733Z,14.50
2023-04-29T13:45:25.786Z,14.30
2023-04-29T13:48:07.350Z,14.20
2023-04-29T13:51:17.468Z,14.00
2023-04-29T13:54:01.652Z,14.10
2023-04-29T14:02:07.865Z,14.10
2023-04-29T14:04:05.852Z,14.10
2023-04-29T14:06:36.333Z,14.20
2023-04-29T14:09:04.707Z,14.30
2023-04-29T14:11:36.687Z,14.40
2023-04-29T14:14:05.162Z,14.40
2023-04-29T14:16:33.374Z,14.50
2023-04-29T14:19:03.783Z,14.40
2023-04-29T14:21:33.317Z,14.40
2023-04-29T14:24:04.620Z,14.50
2023-04-29T14:26:33.499Z,14.70
2023-04-29T14:29:01.781Z,14.70
2023-04-29T14:31:31.999Z,14.70
2023-04-29T14:34:02.172Z,14.80
2023-04-29T14:36:32.916Z,14.90
2023-04-29T14:39:04.297Z,15.00
2023-04-29T14:41:32.803Z,14.90
2023-04-29T14:44:01.757Z,15.10
2023-04-29T14:46:30.140Z,15.00
2023-04-29T14:48:58.675Z,15.20
2023-04-29T14:51:28.832Z,15.20
2023-04-29T14:53:58.090Z,15.10
2023-04-29T14:56:28.272Z,15.20
2023-04-29T14:58:57.114Z,15.40
2023-04-29T15:01:26.193Z,15.30
2023-04-29T15:03:55.174Z,15.30
2023-04-29T15:06:23.643Z,15.20
2023-04-29T15:08:52.641Z,15.10
2023-04-29T15:11:21.803Z,15.10
2023-04-29T15:13:52.296Z,15.10
2023-04-29T15:16:20.885Z,15.20
2023-04-29T15:18:49.812Z,15.20
2023-04-29T15:21:18.671Z,15.20
2023-04-29T15:23:47.353Z,15.20
2023-04-29T15:26:16.182Z,15.30
2023-04-29T15:28:45.731Z,15.30
2023-04-29T15:31:15.520Z,15.20
2023-04-29T15:33:44.113Z,15.10
2023-04-29T15:36:13.373Z,15.00
2023-04-29T15:38:41.564Z,15.00
2023-04-29T15:41:09.845Z,14.90
2023-04-29T15:43:40.448Z,14.90
2023-04-29T15:46:09.583Z,14.90
2023-04-29T15:48:39.345Z,14.90
2023-04-29T15:51:09.554Z,14.70
2023-04-29T15:53:37.679Z,14.70
2023-04-29T15:56:06.517Z,14.70
2023-04-29T15:58:35.280Z,14.60
2023-04-29T16:01:05.068Z,14.60
2023-04-29T16:03:33.950Z,14.70
2023-04-29T16:06:04.580Z,14.70
2023-04-29T16:08:33.005Z,14.70
2023-04-29T16:11:01.738Z,14.80
2023-04-29T16:13:30.085Z,14.70
2023-04-29T16:15:58.308Z,14.70
2023-04-29T16:18:27.437Z,14.80
2023-04-29T16:20:55.953Z,14.90
2023-04-29T16:23:25.950Z,14.90
2023-04-29T16:25:54.576Z,14.80
2023-04-29T16:28:24.547Z,14.70
2023-04-29T16:30:52.645Z,14.80
2023-04-29T16:33:20.817Z,14.70
2023-04-29T16:35:49.332Z,14.70
2023-04-29T16:38:17.736Z,14.70
2023-04-29T16:40:50.141Z,14.60
2023-04-29T16:43:19.212Z,14.60
2023-04-29T16:45:47.400Z,14.60
2023-04-29T16:48:15.613Z,14.50
2023-04-29T16:50:44.167Z,14.50
2023-04-29T16:53:13.576Z,14.40
2023-04-29T16:55:42.464Z,14.40
2023-04-29T16:58:11.970Z,14.40
2023-04-29T17:00:40.190Z,14.30
2023-04-29T17:03:08.509Z,14.20
2023-04-29T17:05:36.814Z,14.20
2023-04-29T17:08:05.768Z,14.20
2023-04-29T17:10:34.116Z,14.20
2023-04-29T17:13:02.295Z,14.10
2023-04-29T17:15:32.569Z,14.10
2023-04-29T17:18:01.300Z,14.10
2023-04-29T17:20:30.392Z,14.10
2023-04-29T17:22:58.632Z,14.10
2023-04-29T17:25:27.096Z,14.00
2023-04-29T17:27:55.428Z,14.00
2023-04-29T17:30:24.791Z,14.00
2023-04-29T17:32:54.570Z,14.00
2023-04-29T17:35:23.310Z,14.00
2023-04-29T17:37:51.625Z,14.00
2023-04-29T17:40:20.217Z,14.00
2023-04-29T17:42:48.318Z,14.00
2023-04-29T17:45:16.591Z,13.90
2023-04-29T17:47:46.548Z,13.90
2023-04-29T17:50:16.230Z,13.90
2023-04-29T17:52:44.578Z,13.90
2023-04-29T17:55:13.190Z,13.90
2023-04-29T17:57:42.088Z,14.00
2023-04-29T18:00:11.592Z,14.00
2023-04-29T18:02:39.876Z,14.00
2023-04-29T18:05:08.518Z,13.90
2023-04-29T18:07:38.047Z,13.90
2023-04-29T18:10:07.294Z,14.00
2023-04-29T18:12:35.381Z,13.90
2023-04-29T18:15:06.037Z,13.90
2023-04-29T18:17:34.808Z,13.90
2023-04-29T18:20:03.170Z,13.90
2023-04-29T18:22:31.307Z,13.80
2023-04-29T18:25:00.901Z,13.80
2023-04-29T18:27:29.160Z,13.70
2023-04-29T18:29:57.358Z,13.70
2023-04-29T18:32:25.470Z,13.70
2023-04-29T18:34:53.584Z,13.70
2023-04-29T18:37:21.956Z,13.70
2023-04-29T18:39:50.164Z,13.70
2023-04-29T18:42:20.323Z,13.60
2023-04-29T18:44:50.842Z,13.60
2023-04-29T18:47:19.681Z,13.50
2023-04-29T18:49:48.355Z,13.40
2023-04-29T18:52:17.067Z,13.40
2023-04-29T18:54:45.397Z,13.30
2023-04-29T18:57:13.651Z,13.10
2023-04-29T18:59:43.208Z,13.00
2023-04-29T19:02:12.396Z,13.00
2023-04-29T19:04:42.827Z,12.70
2023-04-29T19:07:11.173Z,12.60
2023-04-29T19:09:39.848Z,12.50
2023-04-29T19:12:08.530Z,12.40
2023-04-29T19:14:38.442Z,12.30
2023-04-29T19:17:08.104Z,12.20
2023-04-29T19:19:36.374Z,12.20
2023-04-29T19:22:05.355Z,12.10
2023-04-29T19:24:35.332Z,12.00
2023-04-29T19:27:03.677Z,11.90
2023-04-29T19:29:31.887Z,11.80
2023-04-29T19:32:00.318Z,11.70
2023-04-29T19:34:29.792Z,11.70
2023-04-29T19:36:58.241Z,11.60
2023-04-29T19:39:27.257Z,11.50
2023-04-29T19:41:56.218Z,11.40
2023-04-29T19:44:24.616Z,11.40
2023-04-29T19:46:53.467Z,11.30
2023-04-29T19:49:22.004Z,11.40
2023-04-29T19:51:52.036Z,11.40
2023-04-29T19:54:20.498Z,11.40
2023-04-29T19:56:48.930Z,11.60
2023-04-29T19:59:17.286Z,11.70
2023-04-29T20:01:45.470Z,11.70
2023-04-29T20:04:13.646Z,11.70
2023-04-29T20:06:42.103Z,11.80
2023-04-29T20:09:12.084Z,11.90
2023-04-29T20:11:40.659Z,11.90
2023-04-29T20:14:09.111Z,11.90
2023-04-29T20:16:37.244Z,12.00
2023-04-29T20:19:05.719Z,11.90
2023-04-29T20:21:33.909Z,11.90
2023-04-29T20:24:03.141Z,11.90
2023-04-29T20:26:33.558Z,11.80
2023-04-29T20:29:01.982Z,11.80
2023-04-29T20:31:30.489Z,11.70
2023-04-29T20:33:58.655Z,11.70
2023-04-29T20:36:28.543Z,11.60
2023-04-29T20:38:57.243Z,11.60
2023-04-29T20:41:29.462Z,11.60
2023-04-29T20:44:01.650Z,11.60
2023-04-29T20:46:33.093Z,11.60
2023-04-29T20:49:03.093Z,11.50
2023-04-29T20:51:33.170Z,11.60
2023-04-29T20:54:02.370Z,11.50
2023-04-29T20:56:31.436Z,11.40
2023-04-29T20:59:03.222Z,11.40
2023-04-29T21:01:32.127Z,11.40
2023-04-29T21:04:01.923Z,11.30
2023-04-29T21:06:32.161Z,11.30
2023-04-29T21:09:01.373Z,11.20
2023-04-29T21:11:30.541Z,11.20
2023-04-29T21:14:00.047Z,11.20
2023-04-29T21:16:29.317Z,11.20
2023-04-29T21:18:59.491Z,11.10
2023-04-29T21:21:28.655Z,11.10
2023-04-29T21:23:58.796Z,11.00
2023-04-29T21:26:27.958Z,11.00
2023-04-29T21:28:56.518Z,11.10
2023-04-29T21:31:29.084Z,11.00
2023-04-29T21:33:57.893Z,11.00
2023-04-29T21:36:26.824Z,10.90
2023-04-29T21:38:57.567Z,10.90
2023-04-29T21:41:28.899Z,10.80
2023-04-29T21:43:59.887Z,10.70
2023-04-29T21:46:33.707Z,10.70
2023-04-29T21:49:04.137Z,10.70
2023-04-29T21:51:33.454Z,10.60
2023-04-29T21:54:06.364Z,10.50
2023-04-29T21:56:35.283Z,10.60
2023-04-29T21:59:04.318Z,10.50
2023-04-29T22:01:49.703Z,10.40
2023-04-29T22:04:19.193Z,10.40
2023-04-29T22:06:48.877Z,10.30
2023-04-29T22:09:18.000Z,10.30
2023-04-29T22:11:47.158Z,10.30
2023-04-29T22:14:15.884Z,10.20
2023-04-29T22:16:46.093Z,10.20
2023-04-29T22:19:14.465Z,10.10
2023-04-29T22:21:43.109Z,10.00
2023-04-29T22:24:11.653Z,10.00
2023-04-29T22:26:39.974Z,9.90
2023-04-29T22:29:08.156Z,9.90
2023-04-29T22:31:36.458Z,9.80
2023-04-29T22:34:06.419Z,9.80
2023-04-29T22:36:36.550Z,9.70
2023-04-29T22:39:05.059Z,9.80
2023-04-29T22:41:33.418Z,9.60
2023-04-29T22:44:01.643Z,9.60
2023-04-29T22:46:30.084Z,9.50
2023-04-29T22:48:58.382Z,9.60
2023-04-29T22:51:27.987Z,9.50
2023-04-29T22:53:56.188Z,9.40
2023-04-29T22:56:25.091Z,9.50
2023-04-29T22:58:54.168Z,9.40
2023-04-29T23:01:22.695Z,9.40
2023-04-29T23:03:51.256Z,9.40
2023-04-29T23:06:21.253Z,9.40
2023-04-29T23:08:51.002Z,9.40
2023-04-29T23:11:19.240Z,9.30
2023-04-29T23:13:47.604Z,9.30
2023-04-29T23:16:15.952Z,9.20
2023-04-29T23:18:44.247Z,9.20
2023-04-29T23:21:12.516Z,9.20
2023-04-29T23:23:40.950Z,9.10
2023-04-29T23:26:10.642Z,9.10
2023-04-29T23:28:38.993Z,9.10
2023-04-29T23:31:07.373Z,9.20
2023-04-29T23:33:35.748Z,9.10
2023-04-29T23:36:04.345Z,9.00
2023-04-29T23:38:32.800Z,9.00
2023-04-29T23:41:01.143Z,9.00
2023-04-29T23:43:31.171Z,8.90
2023-04-29T23:45:59.421Z,8.80
2023-04-29T23:48:27.589Z,8.80
2023-04-29T23:50:55.801Z,8.70
2023-04-29T23:53:24.151Z,8.70
2023-04-29T23:55:52.596Z,8.80
2023-04-29T23:58:20.908Z,8.70
